sensor_id;sensor_type;location;lat;lon;timestamp;pressure;altitude;pressure_sealevel;temperature;humidity
65013;BME280;51715;39.432;-77.518;2022-10-16T00:01:17;99366.52;;;19.65;38.57
65013;BME280;51715;39.432;-77.518;2022-10-16T00:03:47;99373.84;;;19.63;38.45
65013;BME280;51715;39.432;-77.518;2022-10-16T00:10:21;99385.58;;;19.42;38.66
65013;BME280;51715;39.432;-77.518;2022-10-16T00:12:50;99387.50;;;19.54;38.93
65013;BME280;51715;39.432;-77.518;2022-10-16T00:15:18;99384.68;;;18.87;40.31
65013;BME280;51715;39.432;-77.518;2022-10-16T00:17:46;99385.50;;;18.76;41.51
65013;BME280;51715;39.432;-77.518;2022-10-16T00:20:14;99390.10;;;18.32;41.55
65013;BME280;51715;39.432;-77.518;2022-10-16T00:22:43;99393.14;;;18.33;41.48
65013;BME280;51715;39.432;-77.518;2022-10-16T00:25:11;99398.31;;;17.84;41.93
65013;BME280;51715;39.432;-77.518;2022-10-16T00:27:40;99401.14;;;18.39;41.56
65013;BME280;51715;39.432;-77.518;2022-10-16T00:30:09;99402.89;;;18.41;41.39
65013;BME280;51715;39.432;-77.518;2022-10-16T00:32:37;99407.30;;;18.10;41.31
65013;BME280;51715;39.432;-77.518;2022-10-16T00:35:07;99408.29;;;17.84;42.51
65013;BME280;51715;39.432;-77.518;2022-10-16T00:37:36;99410.48;;;17.44;43.48
65013;BME280;51715;39.432;-77.518;2022-10-16T00:40:07;99409.27;;;17.77;42.80
65013;BME280;51715;39.432;-77.518;2022-10-16T00:42:36;99410.22;;;17.69;43.09
65013;BME280;51715;39.432;-77.518;2022-10-16T00:45:05;99411.39;;;17.62;42.75
65013;BME280;51715;39.432;-77.518;2022-10-16T00:47:36;99412.71;;;17.82;42.64
65013;BME280;51715;39.432;-77.518;2022-10-16T00:50:09;99416.08;;;17.27;43.22
65013;BME280;51715;39.432;-77.518;2022-10-16T00:52:44;99417.98;;;17.34;42.77
65013;BME280;51715;39.432;-77.518;2022-10-16T00:55:14;99418.16;;;16.94;44.09
65013;BME280;51715;39.432;-77.518;2022-10-16T00:57:44;99419.54;;;17.17;43.60
65013;BME280;51715;39.432;-77.518;2022-10-16T01:00:18;99419.62;;;17.00;43.92
65013;BME280;51715;39.432;-77.518;2022-10-16T01:02:53;99423.13;;;17.11;43.20
65013;BME280;51715;39.432;-77.518;2022-10-16T01:05:23;99426.50;;;16.79;43.70
65013;BME280;51715;39.432;-77.518;2022-10-16T01:07:58;99431.59;;;17.13;43.13
65013;BME280;51715;39.432;-77.518;2022-10-16T01:10:35;99433.70;;;17.51;42.55
65013;BME280;51715;39.432;-77.518;2022-10-16T01:13:09;99432.29;;;17.04;41.90
65013;BME280;51715;39.432;-77.518;2022-10-16T01:15:42;99433.22;;;17.68;41.59
65013;BME280;51715;39.432;-77.518;2022-10-16T01:18:16;99437.22;;;17.77;41.06
65013;BME280;51715;39.432;-77.518;2022-10-16T01:20:52;99435.27;;;17.55;41.76
65013;BME280;51715;39.432;-77.518;2022-10-16T01:23:31;99434.61;;;17.01;42.76
65013;BME280;51715;39.432;-77.518;2022-10-16T01:26:14;99437.17;;;17.55;42.49
65013;BME280;51715;39.432;-77.518;2022-10-16T01:28:51;99434.72;;;17.03;42.15
65013;BME280;51715;39.432;-77.518;2022-10-16T01:31:24;99437.86;;;17.23;42.55
65013;BME280;51715;39.432;-77.518;2022-10-16T01:33:59;99439.60;;;16.99;41.80
65013;BME280;51715;39.432;-77.518;2022-10-16T01:36:37;99446.06;;;16.65;43.31
65013;BME280;51715;39.432;-77.518;2022-10-16T01:39:10;99444.10;;;16.79;42.30
65013;BME280;51715;39.432;-77.518;2022-10-16T01:41:43;99442.39;;;17.06;42.21
65013;BME280;51715;39.432;-77.518;2022-10-16T01:44:16;99442.14;;;17.12;42.06
65013;BME280;51715;39.432;-77.518;2022-10-16T01:46:49;99445.88;;;17.02;41.68
65013;BME280;51715;39.432;-77.518;2022-10-16T01:49:18;99447.89;;;17.01;41.78
65013;BME280;51715;39.432;-77.518;2022-10-16T01:51:58;99446.78;;;16.94;41.84
65013;BME280;51715;39.432;-77.518;2022-10-16T01:54:30;99444.29;;;17.19;41.05
65013;BME280;51715;39.432;-77.518;2022-10-16T01:57:00;99447.14;;;17.06;41.49
65013;BME280;51715;39.432;-77.518;2022-10-16T01:59:33;99449.53;;;16.67;42.57
65013;BME280;51715;39.432;-77.518;2022-10-16T02:02:07;99445.63;;;16.74;42.03
65013;BME280;51715;39.432;-77.518;2022-10-16T02:04:43;99443.00;;;17.17;41.47
65013;BME280;51715;39.432;-77.518;2022-10-16T02:07:12;99446.90;;;16.91;41.69
65013;BME280;51715;39.432;-77.518;2022-10-16T02:09:41;99451.56;;;16.78;42.05
65013;BME280;51715;39.432;-77.518;2022-10-16T02:12:15;99458.59;;;16.88;42.28
65013;BME280;51715;39.432;-77.518;2022-10-16T02:14:46;99458.97;;;16.64;41.78
65013;BME280;51715;39.432;-77.518;2022-10-16T02:17:18;99459.20;;;16.88;41.96
65013;BME280;51715;39.432;-77.518;2022-10-16T02:19:49;99460.82;;;16.91;41.74
65013;BME280;51715;39.432;-77.518;2022-10-16T02:22:25;99467.04;;;16.94;41.95
65013;BME280;51715;39.432;-77.518;2022-10-16T02:24:58;99472.20;;;16.79;42.06
65013;BME280;51715;39.432;-77.518;2022-10-16T02:27:32;99475.94;;;17.05;41.68
65013;BME280;51715;39.432;-77.518;2022-10-16T04:04:04;99543.59;;;14.74;42.53
65013;BME280;51715;39.432;-77.518;2022-10-16T04:06:34;99541.48;;;15.53;41.90
65013;BME280;51715;39.432;-77.518;2022-10-16T04:09:04;99534.39;;;15.15;41.52
65013;BME280;51715;39.432;-77.518;2022-10-16T04:11:33;99533.98;;;15.18;42.41
65013;BME280;51715;39.432;-77.518;2022-10-16T04:14:02;99533.65;;;15.23;42.23
65013;BME280;51715;39.432;-77.518;2022-10-16T04:16:32;99530.80;;;15.21;41.59
65013;BME280;51715;39.432;-77.518;2022-10-16T04:19:00;99524.66;;;15.18;41.68
65013;BME280;51715;39.432;-77.518;2022-10-16T04:21:29;99528.37;;;15.35;41.91
65013;BME280;51715;39.432;-77.518;2022-10-16T04:23:57;99533.71;;;15.30;41.85
65013;BME280;51715;39.432;-77.518;2022-10-16T04:26:26;99541.28;;;15.51;41.89
65013;BME280;51715;39.432;-77.518;2022-10-16T04:28:54;99540.66;;;15.30;41.58
65013;BME280;51715;39.432;-77.518;2022-10-16T04:31:22;99543.09;;;15.42;42.07
65013;BME280;51715;39.432;-77.518;2022-10-16T04:33:51;99535.77;;;14.97;42.30
65013;BME280;51715;39.432;-77.518;2022-10-16T04:36:20;99541.01;;;15.31;42.15
65013;BME280;51715;39.432;-77.518;2022-10-16T04:38:48;99546.87;;;15.15;42.33
65013;BME280;51715;39.432;-77.518;2022-10-16T04:41:16;99547.33;;;15.07;42.38
65013;BME280;51715;39.432;-77.518;2022-10-16T04:43:44;99545.30;;;15.19;41.77
65013;BME280;51715;39.432;-77.518;2022-10-16T04:46:12;99538.58;;;15.12;41.97
65013;BME280;51715;39.432;-77.518;2022-10-16T04:48:40;99539.86;;;15.14;41.71
65013;BME280;51715;39.432;-77.518;2022-10-16T04:51:09;99534.47;;;14.83;42.13
65013;BME280;51715;39.432;-77.518;2022-10-16T04:53:37;99531.47;;;14.92;41.73
65013;BME280;51715;39.432;-77.518;2022-10-16T04:56:06;99535.71;;;14.99;41.54
65013;BME280;51715;39.432;-77.518;2022-10-16T04:58:35;99537.84;;;14.76;42.09
65013;BME280;51715;39.432;-77.518;2022-10-16T05:01:04;99538.96;;;14.65;42.14
65013;BME280;51715;39.432;-77.518;2022-10-16T05:03:33;99535.30;;;14.33;42.89
65013;BME280;51715;39.432;-77.518;2022-10-16T05:06:01;99539.51;;;14.14;42.67
65013;BME280;51715;39.432;-77.518;2022-10-16T05:08:29;99542.48;;;14.38;42.33
65013;BME280;51715;39.432;-77.518;2022-10-16T05:10:57;99540.10;;;14.36;42.07
65013;BME280;51715;39.432;-77.518;2022-10-16T05:13:25;99546.41;;;14.66;41.80
65013;BME280;51715;39.432;-77.518;2022-10-16T05:15:54;99545.33;;;14.23;41.71
65013;BME280;51715;39.432;-77.518;2022-10-16T05:18:22;99548.12;;;13.98;42.69
65013;BME280;51715;39.432;-77.518;2022-10-16T05:20:51;99551.19;;;14.33;41.98
65013;BME280;51715;39.432;-77.518;2022-10-16T05:23:19;99552.18;;;14.21;41.84
65013;BME280;51715;39.432;-77.518;2022-10-16T05:25:54;99551.72;;;13.83;43.52
65013;BME280;51715;39.432;-77.518;2022-10-16T05:28:22;99552.68;;;13.49;44.04
65013;BME280;51715;39.432;-77.518;2022-10-16T05:30:50;99550.26;;;13.73;43.27
65013;BME280;51715;39.432;-77.518;2022-10-16T05:33:20;99554.79;;;13.67;42.72
65013;BME280;51715;39.432;-77.518;2022-10-16T05:35:48;99556.57;;;13.94;42.35
65013;BME280;51715;39.432;-77.518;2022-10-16T05:38:17;99558.41;;;13.92;42.08
65013;BME280;51715;39.432;-77.518;2022-10-16T05:40:51;99562.92;;;14.52;41.49
65013;BME280;51715;39.432;-77.518;2022-10-16T05:43:19;99562.22;;;14.34;41.29
65013;BME280;51715;39.432;-77.518;2022-10-16T05:45:54;99563.28;;;14.44;41.28
65013;BME280;51715;39.432;-77.518;2022-10-16T05:48:23;99564.32;;;14.35;40.89
65013;BME280;51715;39.432;-77.518;2022-10-16T05:50:57;99562.25;;;14.58;40.82
65013;BME280;51715;39.432;-77.518;2022-10-16T05:53:26;99567.07;;;14.32;40.44
65013;BME280;51715;39.432;-77.518;2022-10-16T05:55:56;99566.34;;;14.50;40.51
65013;BME280;51715;39.432;-77.518;2022-10-16T05:58:27;99567.12;;;14.31;40.65
65013;BME280;51715;39.432;-77.518;2022-10-16T06:00:56;99567.76;;;14.38;40.06
65013;BME280;51715;39.432;-77.518;2022-10-16T06:03:24;99568.68;;;14.46;40.16
65013;BME280;51715;39.432;-77.518;2022-10-16T06:05:53;99571.66;;;14.42;39.92
65013;BME280;51715;39.432;-77.518;2022-10-16T06:08:23;99571.67;;;14.33;40.49
65013;BME280;51715;39.432;-77.518;2022-10-16T06:11:02;99577.09;;;14.17;40.27
65013;BME280;51715;39.432;-77.518;2022-10-16T06:13:30;99580.68;;;14.30;40.20
65013;BME280;51715;39.432;-77.518;2022-10-16T06:16:00;99583.67;;;14.20;40.29
65013;BME280;51715;39.432;-77.518;2022-10-16T06:18:29;99584.35;;;14.34;40.17
65013;BME280;51715;39.432;-77.518;2022-10-16T06:20:58;99586.31;;;14.50;39.77
65013;BME280;51715;39.432;-77.518;2022-10-16T06:23:29;99591.89;;;14.32;39.78
65013;BME280;51715;39.432;-77.518;2022-10-16T06:26:05;99587.98;;;14.64;39.54
65013;BME280;51715;39.432;-77.518;2022-10-16T06:28:33;99578.01;;;14.48;39.68
65013;BME280;51715;39.432;-77.518;2022-10-16T06:31:04;99581.38;;;14.49;39.51
65013;BME280;51715;39.432;-77.518;2022-10-16T06:33:33;99581.51;;;14.45;39.63
65013;BME280;51715;39.432;-77.518;2022-10-16T06:36:02;99584.99;;;14.67;39.81
65013;BME280;51715;39.432;-77.518;2022-10-16T06:38:30;99585.66;;;14.61;39.88
65013;BME280;51715;39.432;-77.518;2022-10-16T06:40:59;99586.41;;;14.35;39.89
65013;BME280;51715;39.432;-77.518;2022-10-16T06:43:30;99580.52;;;14.35;39.80
65013;BME280;51715;39.432;-77.518;2022-10-16T06:45:59;99576.21;;;14.52;39.71
65013;BME280;51715;39.432;-77.518;2022-10-16T06:48:28;99578.54;;;14.19;39.69
65013;BME280;51715;39.432;-77.518;2022-10-16T06:50:58;99579.14;;;14.16;39.74
65013;BME280;51715;39.432;-77.518;2022-10-16T06:53:28;99577.67;;;13.87;40.12
65013;BME280;51715;39.432;-77.518;2022-10-16T06:55:57;99576.03;;;14.15;40.29
65013;BME280;51715;39.432;-77.518;2022-10-16T06:58:25;99570.29;;;14.19;39.79
65013;BME280;51715;39.432;-77.518;2022-10-16T07:00:56;99568.68;;;14.15;39.96
65013;BME280;51715;39.432;-77.518;2022-10-16T07:03:25;99562.21;;;13.82;39.66
65013;BME280;51715;39.432;-77.518;2022-10-16T07:05:52;99559.84;;;14.15;39.46
65013;BME280;51715;39.432;-77.518;2022-10-16T07:08:21;99561.59;;;14.29;39.85
65013;BME280;51715;39.432;-77.518;2022-10-16T07:10:57;99561.13;;;14.24;39.62
65013;BME280;51715;39.432;-77.518;2022-10-16T07:13:25;99559.99;;;14.15;39.84
65013;BME280;51715;39.432;-77.518;2022-10-16T07:15:54;99557.32;;;14.18;39.75
65013;BME280;51715;39.432;-77.518;2022-10-16T07:18:22;99554.03;;;14.09;40.14
65013;BME280;51715;39.432;-77.518;2022-10-16T07:20:51;99556.84;;;14.34;40.22
65013;BME280;51715;39.432;-77.518;2022-10-16T07:23:18;99559.36;;;14.19;40.21
65013;BME280;51715;39.432;-77.518;2022-10-16T07:25:53;99562.74;;;14.05;40.05
65013;BME280;51715;39.432;-77.518;2022-10-16T07:28:21;99558.14;;;14.13;40.25
65013;BME280;51715;39.432;-77.518;2022-10-16T07:30:50;99557.03;;;14.30;40.38
65013;BME280;51715;39.432;-77.518;2022-10-16T07:33:19;99554.76;;;14.27;40.23
65013;BME280;51715;39.432;-77.518;2022-10-16T07:35:50;99557.54;;;14.26;40.21
65013;BME280;51715;39.432;-77.518;2022-10-16T07:38:20;99556.03;;;14.26;40.12
65013;BME280;51715;39.432;-77.518;2022-10-16T07:40:55;99553.98;;;14.05;40.38
65013;BME280;51715;39.432;-77.518;2022-10-16T07:43:23;99555.59;;;14.26;40.36
65013;BME280;51715;39.432;-77.518;2022-10-16T07:45:51;99553.62;;;14.04;40.73
65013;BME280;51715;39.432;-77.518;2022-10-16T07:48:19;99546.82;;;13.79;40.94
65013;BME280;51715;39.432;-77.518;2022-10-16T07:50:47;99548.85;;;13.99;41.26
65013;BME280;51715;39.432;-77.518;2022-10-16T07:53:15;99552.00;;;14.15;41.08
65013;BME280;51715;39.432;-77.518;2022-10-16T07:55:43;99550.50;;;14.19;40.80
65013;BME280;51715;39.432;-77.518;2022-10-16T07:58:11;99545.07;;;14.27;40.61
65013;BME280;51715;39.432;-77.518;2022-10-16T08:00:40;99548.10;;;14.10;40.74
65013;BME280;51715;39.432;-77.518;2022-10-16T08:03:09;99546.60;;;14.26;40.33
65013;BME280;51715;39.432;-77.518;2022-10-16T08:05:37;99546.84;;;14.53;40.17
65013;BME280;51715;39.432;-77.518;2022-10-16T08:08:05;99541.66;;;14.62;40.17
65013;BME280;51715;39.432;-77.518;2022-10-16T08:10:33;99543.08;;;14.43;40.28
65013;BME280;51715;39.432;-77.518;2022-10-16T08:13:01;99544.79;;;14.45;40.39
65013;BME280;51715;39.432;-77.518;2022-10-16T08:15:29;99535.80;;;14.46;40.43
65013;BME280;51715;39.432;-77.518;2022-10-16T08:17:59;99535.81;;;14.52;40.31
65013;BME280;51715;39.432;-77.518;2022-10-16T08:20:28;99533.80;;;14.60;40.04
65013;BME280;51715;39.432;-77.518;2022-10-16T08:22:57;99531.53;;;14.43;39.73
65013;BME280;51715;39.432;-77.518;2022-10-16T08:25:26;99534.57;;;14.36;40.02
65013;BME280;51715;39.432;-77.518;2022-10-16T08:27:56;99537.31;;;14.49;40.31
65013;BME280;51715;39.432;-77.518;2022-10-16T08:30:24;99535.76;;;14.49;40.45
65013;BME280;51715;39.432;-77.518;2022-10-16T08:32:53;99536.82;;;14.54;40.55
65013;BME280;51715;39.432;-77.518;2022-10-16T08:35:21;99537.83;;;14.55;40.73
65013;BME280;51715;39.432;-77.518;2022-10-16T08:37:49;99540.02;;;14.55;40.85
65013;BME280;51715;39.432;-77.518;2022-10-16T08:40:19;99541.76;;;14.68;40.73
65013;BME280;51715;39.432;-77.518;2022-10-16T08:43:08;99545.00;;;14.88;40.73
65013;BME280;51715;39.432;-77.518;2022-10-16T08:45:48;99546.54;;;14.61;40.88
65013;BME280;51715;39.432;-77.518;2022-10-16T08:48:25;99550.08;;;14.38;41.21
65013;BME280;51715;39.432;-77.518;2022-10-16T08:50:55;99551.90;;;14.67;41.02
65013;BME280;51715;39.432;-77.518;2022-10-16T08:53:27;99556.50;;;14.73;41.14
65013;BME280;51715;39.432;-77.518;2022-10-16T08:55:57;99568.97;;;14.81;41.19
65013;BME280;51715;39.432;-77.518;2022-10-16T08:58:28;99565.29;;;14.76;41.16
65013;BME280;51715;39.432;-77.518;2022-10-16T09:01:00;99563.38;;;14.78;41.12
65013;BME280;51715;39.432;-77.518;2022-10-16T09:03:42;99559.93;;;14.70;41.46
65013;BME280;51715;39.432;-77.518;2022-10-16T09:06:24;99566.79;;;14.85;40.99
65013;BME280;51715;39.432;-77.518;2022-10-16T09:09:08;99561.49;;;14.78;40.97
65013;BME280;51715;39.432;-77.518;2022-10-16T09:11:45;99566.22;;;15.13;41.05
65013;BME280;51715;39.432;-77.518;2022-10-16T09:14:43;99570.31;;;14.74;41.24
65013;BME280;51715;39.432;-77.518;2022-10-16T09:17:29;99567.02;;;14.48;40.63
65013;BME280;51715;39.432;-77.518;2022-10-16T09:20:11;99573.65;;;14.80;40.69
65013;BME280;51715;39.432;-77.518;2022-10-16T09:22:41;99566.47;;;14.49;41.00
65013;BME280;51715;39.432;-77.518;2022-10-16T09:25:15;99570.06;;;14.44;40.50
65013;BME280;51715;39.432;-77.518;2022-10-16T09:27:47;99570.28;;;14.88;39.91
65013;BME280;51715;39.432;-77.518;2022-10-16T09:30:19;99576.64;;;15.00;40.58
65013;BME280;51715;39.432;-77.518;2022-10-16T09:32:50;99572.31;;;14.97;40.42
65013;BME280;51715;39.432;-77.518;2022-10-16T09:35:21;99565.28;;;15.25;40.13
65013;BME280;51715;39.432;-77.518;2022-10-16T09:37:53;99566.87;;;15.04;40.20
65013;BME280;51715;39.432;-77.518;2022-10-16T09:40:27;99565.95;;;15.38;39.98
65013;BME280;51715;39.432;-77.518;2022-10-16T09:43:03;99565.66;;;15.47;39.67
65013;BME280;51715;39.432;-77.518;2022-10-16T09:45:34;99563.15;;;15.03;40.77
65013;BME280;51715;39.432;-77.518;2022-10-16T09:48:11;99563.71;;;15.19;40.07
65013;BME280;51715;39.432;-77.518;2022-10-16T09:50:40;99569.63;;;15.00;39.81
65013;BME280;51715;39.432;-77.518;2022-10-16T09:53:12;99574.87;;;14.78;40.31
65013;BME280;51715;39.432;-77.518;2022-10-16T09:55:49;99577.75;;;14.92;40.08
65013;BME280;51715;39.432;-77.518;2022-10-16T09:58:17;99572.73;;;15.04;39.77
65013;BME280;51715;39.432;-77.518;2022-10-16T10:00:51;99577.89;;;15.08;39.74
65013;BME280;51715;39.432;-77.518;2022-10-16T10:03:34;99581.58;;;15.07;39.10
65013;BME280;51715;39.432;-77.518;2022-10-16T10:06:14;99578.99;;;14.89;39.19
65013;BME280;51715;39.432;-77.518;2022-10-16T10:08:58;99584.05;;;15.15;38.77
65013;BME280;51715;39.432;-77.518;2022-10-16T10:11:48;99584.55;;;15.16;38.59
65013;BME280;51715;39.432;-77.518;2022-10-16T10:14:20;99584.06;;;15.63;38.63
65013;BME280;51715;39.432;-77.518;2022-10-16T10:16:50;99579.46;;;15.01;38.59
65013;BME280;51715;39.432;-77.518;2022-10-16T10:19:21;99577.88;;;14.91;38.11
65013;BME280;51715;39.432;-77.518;2022-10-16T10:21:50;99582.96;;;15.16;38.43
65013;BME280;51715;39.432;-77.518;2022-10-16T10:24:19;99591.90;;;14.60;38.90
65013;BME280;51715;39.432;-77.518;2022-10-16T10:26:53;99591.94;;;14.96;39.08
65013;BME280;51715;39.432;-77.518;2022-10-16T10:29:34;99589.14;;;14.49;40.36
65013;BME280;51715;39.432;-77.518;2022-10-16T10:32:16;99593.29;;;13.93;40.57
65013;BME280;51715;39.432;-77.518;2022-10-16T10:34:58;99604.99;;;14.37;40.13
65013;BME280;51715;39.432;-77.518;2022-10-16T10:37:39;99609.40;;;14.56;39.57
65013;BME280;51715;39.432;-77.518;2022-10-16T10:40:22;99612.45;;;14.90;39.27
65013;BME280;51715;39.432;-77.518;2022-10-16T10:42:57;99619.86;;;14.60;39.31
65013;BME280;51715;39.432;-77.518;2022-10-16T10:45:31;99619.04;;;14.63;39.31
65013;BME280;51715;39.432;-77.518;2022-10-16T10:48:17;99622.85;;;14.56;39.39
65013;BME280;51715;39.432;-77.518;2022-10-16T10:50:51;99619.94;;;14.04;39.42
65013;BME280;51715;39.432;-77.518;2022-10-16T10:53:35;99618.31;;;14.36;39.91
65013;BME280;51715;39.432;-77.518;2022-10-16T10:56:16;99625.53;;;14.43;39.62
65013;BME280;51715;39.432;-77.518;2022-10-16T11:03:31;99614.23;;;13.71;40.74
65013;BME280;51715;39.432;-77.518;2022-10-16T11:06:05;99617.64;;;13.89;41.16
65013;BME280;51715;39.432;-77.518;2022-10-16T11:08:38;99621.28;;;14.06;41.60
65013;BME280;51715;39.432;-77.518;2022-10-16T11:11:11;99616.59;;;13.69;42.19
65013;BME280;51715;39.432;-77.518;2022-10-16T11:13:49;99614.37;;;13.71;42.14
65013;BME280;51715;39.432;-77.518;2022-10-16T11:16:27;99621.08;;;13.73;42.20
65013;BME280;51715;39.432;-77.518;2022-10-16T11:19:01;99620.32;;;13.25;43.17
65013;BME280;51715;39.432;-77.518;2022-10-16T11:21:38;99627.97;;;13.53;43.40
65013;BME280;51715;39.432;-77.518;2022-10-16T11:24:16;99631.92;;;13.39;43.22
65013;BME280;51715;39.432;-77.518;2022-10-16T11:26:48;99632.30;;;13.04;43.83
65013;BME280;51715;39.432;-77.518;2022-10-16T11:29:22;99636.56;;;12.98;43.80
65013;BME280;51715;39.432;-77.518;2022-10-16T11:31:57;99640.70;;;13.34;43.59
65013;BME280;51715;39.432;-77.518;2022-10-16T11:34:32;99638.69;;;13.00;43.24
65013;BME280;51715;39.432;-77.518;2022-10-16T11:37:05;99643.21;;;13.43;43.28
65013;BME280;51715;39.432;-77.518;2022-10-16T11:39:38;99643.37;;;13.26;43.14
65013;BME280;51715;39.432;-77.518;2022-10-16T11:42:11;99643.00;;;13.71;42.96
65013;BME280;51715;39.432;-77.518;2022-10-16T11:44:50;99640.57;;;13.72;42.64
65013;BME280;51715;39.432;-77.518;2022-10-16T11:47:30;99637.28;;;13.99;42.19
65013;BME280;51715;39.432;-77.518;2022-10-16T11:50:03;99637.93;;;14.23;41.88
65013;BME280;51715;39.432;-77.518;2022-10-16T11:52:38;99635.31;;;14.26;41.96
65013;BME280;51715;39.432;-77.518;2022-10-16T11:55:15;99634.35;;;14.38;41.45
65013;BME280;51715;39.432;-77.518;2022-10-16T11:57:48;99624.79;;;14.41;41.26
65013;BME280;51715;39.432;-77.518;2022-10-16T12:00:22;99616.84;;;14.63;41.20
65013;BME280;51715;39.432;-77.518;2022-10-16T12:02:58;99618.48;;;14.81;41.08
65013;BME280;51715;39.432;-77.518;2022-10-16T12:05:37;99613.44;;;14.80;40.74
65013;BME280;51715;39.432;-77.518;2022-10-16T12:08:14;99623.38;;;14.99;40.60
65013;BME280;51715;39.432;-77.518;2022-10-16T12:10:44;99626.79;;;15.14;40.38
65013;BME280;51715;39.432;-77.518;2022-10-16T12:13:31;99615.65;;;15.15;39.39
65013;BME280;51715;39.432;-77.518;2022-10-16T12:16:19;99620.98;;;14.99;39.97
65013;BME280;51715;39.432;-77.518;2022-10-16T12:18:49;99625.46;;;15.56;39.65
65013;BME280;51715;39.432;-77.518;2022-10-16T12:21:18;99623.40;;;15.19;39.27
65013;BME280;51715;39.432;-77.518;2022-10-16T12:24:00;99632.49;;;15.61;39.84
65013;BME280;51715;39.432;-77.518;2022-10-16T12:26:30;99629.04;;;15.20;39.43
65013;BME280;51715;39.432;-77.518;2022-10-16T12:29:20;99629.41;;;15.19;39.59
65013;BME280;51715;39.432;-77.518;2022-10-16T12:31:51;99620.11;;;15.22;40.19
65013;BME280;51715;39.432;-77.518;2022-10-16T12:34:26;99625.93;;;14.80;40.99
65013;BME280;51715;39.432;-77.518;2022-10-16T12:36:56;99620.38;;;14.99;40.82
65013;BME280;51715;39.432;-77.518;2022-10-16T12:39:36;99607.58;;;15.04;41.24
65013;BME280;51715;39.432;-77.518;2022-10-16T12:42:17;99605.43;;;15.05;41.77
65013;BME280;51715;39.432;-77.518;2022-10-16T12:44:47;99604.36;;;14.91;41.23
65013;BME280;51715;39.432;-77.518;2022-10-16T12:47:22;99599.60;;;15.65;40.95
65013;BME280;51715;39.432;-77.518;2022-10-16T12:49:53;99591.67;;;15.36;40.91
65013;BME280;51715;39.432;-77.518;2022-10-16T12:52:28;99598.87;;;15.28;40.86
65013;BME280;51715;39.432;-77.518;2022-10-16T12:54:58;99621.57;;;15.32;40.28
65013;BME280;51715;39.432;-77.518;2022-10-16T12:57:37;99621.28;;;15.48;40.59
65013;BME280;51715;39.432;-77.518;2022-10-16T13:00:18;99616.38;;;15.68;40.04
65013;BME280;51715;39.432;-77.518;2022-10-16T13:03:02;99625.35;;;15.85;39.62
65013;BME280;51715;39.432;-77.518;2022-10-16T13:05:43;99626.03;;;15.90;40.08
65013;BME280;51715;39.432;-77.518;2022-10-16T13:08:27;99623.78;;;15.80;40.19
65013;BME280;51715;39.432;-77.518;2022-10-16T13:11:06;99619.84;;;15.25;41.28
65013;BME280;51715;39.432;-77.518;2022-10-16T13:14:05;99622.86;;;15.49;41.04
65013;BME280;51715;39.432;-77.518;2022-10-16T13:16:48;99616.66;;;15.76;41.33
65013;BME280;51715;39.432;-77.518;2022-10-16T13:19:24;99613.85;;;16.17;41.17
65013;BME280;51715;39.432;-77.518;2022-10-16T13:22:02;99613.11;;;16.17;40.45
65013;BME280;51715;39.432;-77.518;2022-10-16T13:24:51;99613.64;;;16.62;40.22
65013;BME280;51715;39.432;-77.518;2022-10-16T13:27:31;99618.76;;;16.78;40.10
65013;BME280;51715;39.432;-77.518;2022-10-16T13:30:11;99624.30;;;16.43;39.83
65013;BME280;51715;39.432;-77.518;2022-10-16T13:32:40;99626.27;;;16.65;40.09
65013;BME280;51715;39.432;-77.518;2022-10-16T13:35:22;99623.27;;;16.58;40.60
65013;BME280;51715;39.432;-77.518;2022-10-16T13:38:02;99601.65;;;16.85;40.02
65013;BME280;51715;39.432;-77.518;2022-10-16T13:40:30;99600.05;;;16.84;40.31
65013;BME280;51715;39.432;-77.518;2022-10-16T13:43:00;99610.47;;;17.29;40.02
65013;BME280;51715;39.432;-77.518;2022-10-16T13:45:29;99609.23;;;17.60;40.17
65013;BME280;51715;39.432;-77.518;2022-10-16T13:48:03;99597.72;;;17.90;40.85
65013;BME280;51715;39.432;-77.518;2022-10-16T13:50:32;99582.20;;;17.82;40.40
65013;BME280;51715;39.432;-77.518;2022-10-16T13:53:13;99579.82;;;18.06;39.49
65013;BME280;51715;39.432;-77.518;2022-10-16T13:55:41;99587.87;;;17.84;39.64
65013;BME280;51715;39.432;-77.518;2022-10-16T13:58:14;99595.25;;;17.97;39.64
65013;BME280;51715;39.432;-77.518;2022-10-16T14:01:01;99588.94;;;18.33;37.83
65013;BME280;51715;39.432;-77.518;2022-10-16T14:03:31;99572.45;;;18.59;37.43
65013;BME280;51715;39.432;-77.518;2022-10-16T14:06:03;99571.76;;;18.83;37.53
65013;BME280;51715;39.432;-77.518;2022-10-16T14:08:32;99567.07;;;19.28;37.99
65013;BME280;51715;39.432;-77.518;2022-10-16T14:11:01;99567.19;;;19.02;37.96
65013;BME280;51715;39.432;-77.518;2022-10-16T14:13:34;99569.28;;;19.28;38.40
65013;BME280;51715;39.432;-77.518;2022-10-16T14:16:15;99573.46;;;19.22;36.35
65013;BME280;51715;39.432;-77.518;2022-10-16T14:18:50;99579.20;;;19.44;35.91
65013;BME280;51715;39.432;-77.518;2022-10-16T14:21:22;99579.21;;;19.73;33.76
65013;BME280;51715;39.432;-77.518;2022-10-16T14:23:51;99580.28;;;20.14;33.43
65013;BME280;51715;39.432;-77.518;2022-10-16T14:26:22;99581.84;;;19.86;31.34
65013;BME280;51715;39.432;-77.518;2022-10-16T14:29:03;99588.97;;;20.36;30.29
65013;BME280;51715;39.432;-77.518;2022-10-16T14:31:34;99589.81;;;20.61;31.58
65013;BME280;51715;39.432;-77.518;2022-10-16T14:34:02;99589.82;;;20.71;30.65
65013;BME280;51715;39.432;-77.518;2022-10-16T14:36:31;99595.90;;;20.48;29.52
65013;BME280;51715;39.432;-77.518;2022-10-16T14:39:02;99598.85;;;20.41;30.26
65013;BME280;51715;39.432;-77.518;2022-10-16T14:41:41;99598.15;;;20.74;29.60
65013;BME280;51715;39.432;-77.518;2022-10-16T14:44:11;99598.49;;;21.12;28.92
65013;BME280;51715;39.432;-77.518;2022-10-16T14:46:41;99597.41;;;21.62;27.34
65013;BME280;51715;39.432;-77.518;2022-10-16T14:49:16;99595.52;;;21.76;25.90
65013;BME280;51715;39.432;-77.518;2022-10-16T14:51:46;99591.92;;;22.04;26.33